sensor_id;sensor_type;location;lat;lon;timestamp;temperature;humidity
45383;DHT22;42455;51.660;5.824;2023-03-23T00:04:44;14.2;96.0
45383;DHT22;42455;51.660;5.824;2023-03-23T00:09:50;14.2;96.0
45383;DHT22;42455;51.660;5.824;2023-03-23T00:14:56;14.3;96.0
45383;DHT22;42455;51.660;5.824;2023-03-23T00:20:03;14.3;95.5
45383;DHT22;42455;51.660;5.824;2023-03-23T00:25:09;14.3;95.5
45383;DHT22;42455;51.660;5.824;2023-03-23T00:30:15;14.3;95.5
45383;DHT22;42455;51.660;5.824;2023-03-23T00:35:21;14.3;95.5
45383;DHT22;42455;51.660;5.824;2023-03-23T00:40:27;14.4;95.5
45383;DHT22;42455;51.660;5.824;2023-03-23T00:45:33;14.4;95.5
45383;DHT22;42455;51.660;5.824;2023-03-23T00:50:39;14.4;95.0
45383;DHT22;42455;51.660;5.824;2023-03-23T00:55:47;14.4;95.0
45383;DHT22;42455;51.660;5.824;2023-03-23T01:00:51;14.4;95.0
45383;DHT22;42455;51.660;5.824;2023-03-23T01:05:56;14.4;95.0
45383;DHT22;42455;51.660;5.824;2023-03-23T01:11:03;14.4;95.0
45383;DHT22;42455;51.660;5.824;2023-03-23T01:16:10;14.4;95.0
45383;DHT22;42455;51.660;5.824;2023-03-23T01:21:19;14.5;95.0
45383;DHT22;42455;51.660;5.824;2023-03-23T01:26:23;14.5;95.0
45383;DHT22;42455;51.660;5.824;2023-03-23T01:31:27;14.5;95.0
45383;DHT22;42455;51.660;5.824;2023-03-23T01:36:34;14.5;95.0
45383;DHT22;42455;51.660;5.824;2023-03-23T01:41:40;14.5;95.0
45383;DHT22;42455;51.660;5.824;2023-03-23T01:46:46;14.5;95.0
45383;DHT22;42455;51.660;5.824;2023-03-23T01:51:55;14.4;95.0
45383;DHT22;42455;51.660;5.824;2023-03-23T01:57:16;14.4;95.0
45383;DHT22;42455;51.660;5.824;2023-03-23T02:02:05;14.4;95.0
45383;DHT22;42455;51.660;5.824;2023-03-23T02:07:12;14.4;95.0
45383;DHT22;42455;51.660;5.824;2023-03-23T02:12:17;14.4;95.0
45383;DHT22;42455;51.660;5.824;2023-03-23T02:17:44;14.4;95.0
45383;DHT22;42455;51.660;5.824;2023-03-23T02:24:48;14.4;95.0
45383;DHT22;42455;51.660;5.824;2023-03-23T02:30:15;14.5;95.0
45383;DHT22;42455;51.660;5.824;2023-03-23T02:35:08;14.5;95.0
45383;DHT22;42455;51.660;5.824;2023-03-23T02:39:02;14.5;95.0
45383;DHT22;42455;51.660;5.824;2023-03-23T02:42:55;14.5;95.0
45383;DHT22;42455;51.660;5.824;2023-03-23T02:48:04;14.6;94.5
45383;DHT22;42455;51.660;5.824;2023-03-23T02:53:10;14.6;94.5
45383;DHT22;42455;51.660;5.824;2023-03-23T02:58:12;14.6;94.5
45383;DHT22;42455;51.660;5.824;2023-03-23T03:03:21;14.7;94.5
45383;DHT22;42455;51.660;5.824;2023-03-23T03:08:36;14.7;94.5
45383;DHT22;42455;51.660;5.824;2023-03-23T03:13:45;14.7;94.5
45383;DHT22;42455;51.660;5.824;2023-03-23T03:18:38;14.8;94.0
45383;DHT22;42455;51.660;5.824;2023-03-23T03:23:44;14.8;94.0
45383;DHT22;42455;51.660;5.824;2023-03-23T03:28:49;14.8;94.0
45383;DHT22;42455;51.660;5.824;2023-03-23T03:33:55;14.8;94.0
45383;DHT22;42455;51.660;5.824;2023-03-23T03:39:05;14.8;94.0
45383;DHT22;42455;51.660;5.824;2023-03-23T03:44:07;14.8;94.0
45383;DHT22;42455;51.660;5.824;2023-03-23T03:49:13;14.9;94.0
45383;DHT22;42455;51.660;5.824;2023-03-23T03:54:20;14.9;94.0
45383;DHT22;42455;51.660;5.824;2023-03-23T03:59:26;14.9;94.0
45383;DHT22;42455;51.660;5.824;2023-03-23T04:04:32;14.9;94.0
45383;DHT22;42455;51.660;5.824;2023-03-23T04:09:38;14.9;93.5
45383;DHT22;42455;51.660;5.824;2023-03-23T04:14:44;14.9;93.5
45383;DHT22;42455;51.660;5.824;2023-03-23T04:19:50;14.9;93.5
45383;DHT22;42455;51.660;5.824;2023-03-23T04:24:57;14.9;93.5
45383;DHT22;42455;51.660;5.824;2023-03-23T04:30:03;14.9;93.5
45383;DHT22;42455;51.660;5.824;2023-03-23T04:35:10;14.9;93.5
45383;DHT22;42455;51.660;5.824;2023-03-23T04:40:16;14.9;93.0
45383;DHT22;42455;51.660;5.824;2023-03-23T04:45:21;15.0;93.0
45383;DHT22;42455;51.660;5.824;2023-03-23T04:50:28;15.0;92.5
45383;DHT22;42455;51.660;5.824;2023-03-23T04:55:35;15.0;92.5
45383;DHT22;42455;51.660;5.824;2023-03-23T05:00:40;15.0;92.5
45383;DHT22;42455;51.660;5.824;2023-03-23T05:05:46;15.0;92.0
45383;DHT22;42455;51.660;5.824;2023-03-23T05:10:53;15.0;92.0
45383;DHT22;42455;51.660;5.824;2023-03-23T05:15:58;15.0;92.0
45383;DHT22;42455;51.660;5.824;2023-03-23T05:21:04;15.0;92.0
45383;DHT22;42455;51.660;5.824;2023-03-23T05:26:10;15.0;91.5
45383;DHT22;42455;51.660;5.824;2023-03-23T05:31:17;15.0;91.5
45383;DHT22;42455;51.660;5.824;2023-03-23T05:36:23;15.0;91.5
45383;DHT22;42455;51.660;5.824;2023-03-23T05:41:29;15.0;91.5
45383;DHT22;42455;51.660;5.824;2023-03-23T05:46:35;15.0;91.0
45383;DHT22;42455;51.660;5.824;2023-03-23T05:51:41;15.0;91.0
45383;DHT22;42455;51.660;5.824;2023-03-23T05:56:48;15.0;91.0
45383;DHT22;42455;51.660;5.824;2023-03-23T06:01:54;14.9;91.0
45383;DHT22;42455;51.660;5.824;2023-03-23T06:07:00;14.9;91.0
45383;DHT22;42455;51.660;5.824;2023-03-23T06:12:06;14.9;91.0
45383;DHT22;42455;51.660;5.824;2023-03-23T06:17:13;14.9;91.0
45383;DHT22;42455;51.660;5.824;2023-03-23T06:22:19;14.9;91.0
45383;DHT22;42455;51.660;5.824;2023-03-23T06:27:24;14.9;91.5
45383;DHT22;42455;51.660;5.824;2023-03-23T06:32:31;14.8;91.5
45383;DHT22;42455;51.660;5.824;2023-03-23T06:37:35;14.8;91.5
45383;DHT22;42455;51.660;5.824;2023-03-23T06:42:41;14.8;91.5
45383;DHT22;42455;51.660;5.824;2023-03-23T06:47:47;14.8;92.0
45383;DHT22;42455;51.660;5.824;2023-03-23T06:52:53;14.8;92.0
45383;DHT22;42455;51.660;5.824;2023-03-23T06:57:59;14.8;92.0
45383;DHT22;42455;51.660;5.824;2023-03-23T07:03:06;14.8;92.0
45383;DHT22;42455;51.660;5.824;2023-03-23T07:08:12;14.8;92.0
45383;DHT22;42455;51.660;5.824;2023-03-23T07:13:18;14.8;92.0
45383;DHT22;42455;51.660;5.824;2023-03-23T07:18:24;14.8;92.0
45383;DHT22;42455;51.660;5.824;2023-03-23T07:23:30;14.8;92.0
45383;DHT22;42455;51.660;5.824;2023-03-23T07:28:36;14.8;92.0
45383;DHT22;42455;51.660;5.824;2023-03-23T07:33:43;14.8;92.0
45383;DHT22;42455;51.660;5.824;2023-03-23T07:38:49;14.7;92.0
45383;DHT22;42455;51.660;5.824;2023-03-23T07:43:55;14.7;92.0
45383;DHT22;42455;51.660;5.824;2023-03-23T07:49:02;14.6;92.0
45383;DHT22;42455;51.660;5.824;2023-03-23T07:54:08;14.5;92.5
45383;DHT22;42455;51.660;5.824;2023-03-23T07:59:14;14.4;92.5
45383;DHT22;42455;51.660;5.824;2023-03-23T08:04:20;14.3;92.5
45383;DHT22;42455;51.660;5.824;2023-03-23T08:09:26;14.2;92.5
45383;DHT22;42455;51.660;5.824;2023-03-23T08:14:32;14.1;92.5
45383;DHT22;42455;51.660;5.824;2023-03-23T08:19:39;14.0;92.0
45383;DHT22;42455;51.660;5.824;2023-03-23T08:24:45;13.8;92.0
45383;DHT22;42455;51.660;5.824;2023-03-23T08:29:51;13.7;92.0
45383;DHT22;42455;51.660;5.824;2023-03-23T08:34:56;13.5;92.0
45383;DHT22;42455;51.660;5.824;2023-03-23T08:40:04;13.5;92.5
45383;DHT22;42455;51.660;5.824;2023-03-23T08:45:11;13.4;92.5
45383;DHT22;42455;51.660;5.824;2023-03-23T08:50:21;13.4;93.0
45383;DHT22;42455;51.660;5.824;2023-03-23T08:55:20;13.4;93.0
45383;DHT22;42455;51.660;5.824;2023-03-23T09:00:25;13.4;93.5
45383;DHT22;42455;51.660;5.824;2023-03-23T09:05:31;13.5;93.5
45383;DHT22;42455;51.660;5.824;2023-03-23T09:10:38;13.6;93.5
45383;DHT22;42455;51.660;5.824;2023-03-23T09:15:44;13.6;93.5
45383;DHT22;42455;51.660;5.824;2023-03-23T09:20:51;13.7;93.5
45383;DHT22;42455;51.660;5.824;2023-03-23T09:25:56;13.8;93.5
45383;DHT22;42455;51.660;5.824;2023-03-23T09:31:03;13.9;93.5
45383;DHT22;42455;51.660;5.824;2023-03-23T09:36:09;14.0;93.0
45383;DHT22;42455;51.660;5.824;2023-03-23T09:41:40;14.2;93.5
45383;DHT22;42455;51.660;5.824;2023-03-23T09:46:46;14.4;93.5
45383;DHT22;42455;51.660;5.824;2023-03-23T09:51:46;14.5;93.0
45383;DHT22;42455;51.660;5.824;2023-03-23T09:56:35;14.6;92.5
45383;DHT22;42455;51.660;5.824;2023-03-23T10:01:49;14.6;92.0
45383;DHT22;42455;51.660;5.824;2023-03-23T10:06:46;14.7;92.0
45383;DHT22;42455;51.660;5.824;2023-03-23T10:12:27;14.7;92.0
45383;DHT22;42455;51.660;5.824;2023-03-23T10:17:08;14.9;92.0
45383;DHT22;42455;51.660;5.824;2023-03-23T10:22:09;15.0;92.0
45383;DHT22;42455;51.660;5.824;2023-03-23T10:27:33;15.1;92.0
45383;DHT22;42455;51.660;5.824;2023-03-23T10:32:20;15.3;92.0
45383;DHT22;42455;51.660;5.824;2023-03-23T10:37:26;15.4;91.5
45383;DHT22;42455;51.660;5.824;2023-03-23T10:42:31;15.6;91.5
45383;DHT22;42455;51.660;5.824;2023-03-23T10:47:36;15.8;92.0
45383;DHT22;42455;51.660;5.824;2023-03-23T10:52:42;16.0;91.5
45383;DHT22;42455;51.660;5.824;2023-03-23T10:57:58;16.2;91.0
45383;DHT22;42455;51.660;5.824;2023-03-23T11:03:00;16.4;90.5
45383;DHT22;42455;51.660;5.824;2023-03-23T11:08:00;16.4;90.0
45383;DHT22;42455;51.660;5.824;2023-03-23T11:13:12;16.5;89.5
45383;DHT22;42455;51.660;5.824;2023-03-23T11:18:19;16.5;89.5
45383;DHT22;42455;51.660;5.824;2023-03-23T11:23:20;16.6;89.0
45383;DHT22;42455;51.660;5.824;2023-03-23T11:28:27;16.7;89.5
45383;DHT22;42455;51.660;5.824;2023-03-23T11:33:35;16.8;89.0
45383;DHT22;42455;51.660;5.824;2023-03-23T11:38:36;16.8;88.5
45383;DHT22;42455;51.660;5.824;2023-03-23T11:43:44;16.9;89.0
45383;DHT22;42455;51.660;5.824;2023-03-23T11:48:53;17.1;88.5
45383;DHT22;42455;51.660;5.824;2023-03-23T11:53:59;17.2;88.0
45383;DHT22;42455;51.660;5.824;2023-03-23T11:59:02;17.2;87.5
45383;DHT22;42455;51.660;5.824;2023-03-23T12:05:29;17.2;86.5
45383;DHT22;42455;51.660;5.824;2023-03-23T12:10:20;17.2;85.5
45383;DHT22;42455;51.660;5.824;2023-03-23T12:15:38;17.1;86.0
45383;DHT22;42455;51.660;5.824;2023-03-23T12:20:41;17.1;86.0
45383;DHT22;42455;51.660;5.824;2023-03-23T12:26:23;17.2;87.0
45383;DHT22;42455;51.660;5.824;2023-03-23T12:31:00;17.4;86.5
45383;DHT22;42455;51.660;5.824;2023-03-23T12:36:09;17.5;86.0
45383;DHT22;42455;51.660;5.824;2023-03-23T12:41:22;17.6;84.5
45383;DHT22;42455;51.660;5.824;2023-03-23T12:45:37;17.7;84.5
45383;DHT22;42455;51.660;5.824;2023-03-23T12:50:05;17.8;84.5
45383;DHT22;42455;51.660;5.824;2023-03-23T12:55:17;17.9;83.5
45383;DHT22;42455;51.660;5.824;2023-03-23T13:00:19;18.0;83.5
45383;DHT22;42455;51.660;5.824;2023-03-23T13:05:40;18.1;83.0
45383;DHT22;42455;51.660;5.824;2023-03-23T13:10:32;18.2;83.5
45383;DHT22;42455;51.660;5.824;2023-03-23T13:15:44;18.3;82.5
45383;DHT22;42455;51.660;5.824;2023-03-23T13:21:28;18.4;82.5
45383;DHT22;42455;51.660;5.824;2023-03-23T13:25:59;18.5;82.0
45383;DHT22;42455;51.660;5.824;2023-03-23T13:30:53;18.5;82.0
45383;DHT22;42455;51.660;5.824;2023-03-23T13:36:04;18.5;81.5
45383;DHT22;42455;51.660;5.824;2023-03-23T13:41:12;18.6;81.5
45383;DHT22;42455;51.660;5.824;2023-03-23T13:46:13;18.6;81.5
45383;DHT22;42455;51.660;5.824;2023-03-23T13:51:33;18.5;81.0
45383;DHT22;42455;51.660;5.824;2023-03-23T13:56:39;18.5;81.0
45383;DHT22;42455;51.660;5.824;2023-03-23T14:01:38;18.5;80.5
45383;DHT22;42455;51.660;5.824;2023-03-23T14:06:36;18.4;80.5
45383;DHT22;42455;51.660;5.824;2023-03-23T14:11:51;18.4;80.5
45383;DHT22;42455;51.660;5.824;2023-03-23T14:16:51;18.2;80.0
45383;DHT22;42455;51.660;5.824;2023-03-23T14:21:55;17.9;80.0
45383;DHT22;42455;51.660;5.824;2023-03-23T14:27:17;17.5;80.5
45383;DHT22;42455;51.660;5.824;2023-03-23T14:32:13;17.1;81.0
45383;DHT22;42455;51.660;5.824;2023-03-23T14:42:20;16.7;84.0
45383;DHT22;42455;51.660;5.824;2023-03-23T14:47:30;16.6;85.0
45383;DHT22;42455;51.660;5.824;2023-03-23T14:52:32;16.7;86.0
45383;DHT22;42455;51.660;5.824;2023-03-23T14:57:34;16.8;86.5
45383;DHT22;42455;51.660;5.824;2023-03-23T15:02:40;17.0;87.0
45383;DHT22;42455;51.660;5.824;2023-03-23T15:07:49;17.1;87.0
45383;DHT22;42455;51.660;5.824;2023-03-23T15:12:52;17.3;86.5
45383;DHT22;42455;51.660;5.824;2023-03-23T15:17:59;17.5;86.0
45383;DHT22;42455;51.660;5.824;2023-03-23T15:23:06;17.6;86.0
45383;DHT22;42455;51.660;5.824;2023-03-23T15:28:18;17.6;85.5
45383;DHT22;42455;51.660;5.824;2023-03-23T15:33:17;17.6;85.5
45383;DHT22;42455;51.660;5.824;2023-03-23T15:38:25;17.6;86.0
45383;DHT22;42455;51.660;5.824;2023-03-23T15:43:31;17.6;86.0
45383;DHT22;42455;51.660;5.824;2023-03-23T15:48:45;17.6;86.5
45383;DHT22;42455;51.660;5.824;2023-03-23T15:53:42;17.6;86.0
45383;DHT22;42455;51.660;5.824;2023-03-23T15:58:48;17.6;86.0
45383;DHT22;42455;51.660;5.824;2023-03-23T16:03:56;17.5;86.0
45383;DHT22;42455;51.660;5.824;2023-03-23T16:09:01;17.5;85.5
45383;DHT22;42455;51.660;5.824;2023-03-23T16:14:06;17.5;86.0
45383;DHT22;42455;51.660;5.824;2023-03-23T16:19:14;17.4;86.0
45383;DHT22;42455;51.660;5.824;2023-03-23T16:24:19;17.3;86.0
45383;DHT22;42455;51.660;5.824;2023-03-23T16:29:25;17.2;86.5
45383;DHT22;42455;51.660;5.824;2023-03-23T16:34:31;17.1;87.0
45383;DHT22;42455;51.660;5.824;2023-03-23T16:39:37;17.0;87.5
45383;DHT22;42455;51.660;5.824;2023-03-23T16:44:43;17.0;87.5
45383;DHT22;42455;51.660;5.824;2023-03-23T16:49:49;17.0;87.5
45383;DHT22;42455;51.660;5.824;2023-03-23T16:54:54;17.0;87.5
45383;DHT22;42455;51.660;5.824;2023-03-23T17:00:00;16.9;87.5
45383;DHT22;42455;51.660;5.824;2023-03-23T17:05:08;16.8;87.5
45383;DHT22;42455;51.660;5.824;2023-03-23T17:10:14;16.7;87.5
45383;DHT22;42455;51.660;5.824;2023-03-23T17:15:20;16.7;87.5
45383;DHT22;42455;51.660;5.824;2023-03-23T17:20:25;16.5;87.5
45383;DHT22;42455;51.660;5.824;2023-03-23T17:25:31;16.4;88.0
45383;DHT22;42455;51.660;5.824;2023-03-23T17:30:40;16.3;88.5
45383;DHT22;42455;51.660;5.824;2023-03-23T17:35:45;16.2;88.5
45383;DHT22;42455;51.660;5.824;2023-03-23T17:40:54;16.1;89.0
45383;DHT22;42455;51.660;5.824;2023-03-23T17:45:56;16.1;89.0
45383;DHT22;42455;51.660;5.824;2023-03-23T17:51:03;16.0;89.5
45383;DHT22;42455;51.660;5.824;2023-03-23T17:56:08;15.9;89.5
45383;DHT22;42455;51.660;5.824;2023-03-23T18:01:15;15.9;89.5
45383;DHT22;42455;51.660;5.824;2023-03-23T18:06:21;15.8;89.5
45383;DHT22;42455;51.660;5.824;2023-03-23T18:11:28;15.7;90.0
45383;DHT22;42455;51.660;5.824;2023-03-23T18:16:33;15.7;90.0
45383;DHT22;42455;51.660;5.824;2023-03-23T18:21:40;15.7;90.0
45383;DHT22;42455;51.660;5.824;2023-03-23T18:26:46;15.7;90.0
45383;DHT22;42455;51.660;5.824;2023-03-23T18:31:52;15.6;90.0
45383;DHT22;42455;51.660;5.824;2023-03-23T18:36:58;15.6;90.0
45383;DHT22;42455;51.660;5.824;2023-03-23T18:42:04;15.6;90.0
45383;DHT22;42455;51.660;5.824;2023-03-23T18:47:10;15.6;90.0
45383;DHT22;42455;51.660;5.824;2023-03-23T18:52:16;15.6;90.0
45383;DHT22;42455;51.660;5.824;2023-03-23T18:57:23;15.6;90.0
45383;DHT22;42455;51.660;5.824;2023-03-23T19:02:28;15.7;90.0
45383;DHT22;42455;51.660;5.824;2023-03-23T19:07:35;15.7;90.0
45383;DHT22;42455;51.660;5.824;2023-03-23T19:12:41;15.7;90.0
45383;DHT22;42455;51.660;5.824;2023-03-23T19:17:47;15.7;90.0
45383;DHT22;42455;51.660;5.824;2023-03-23T19:22:52;15.7;90.0
45383;DHT22;42455;51.660;5.824;2023-03-23T19:27:59;15.7;90.0
45383;DHT22;42455;51.660;5.824;2023-03-23T19:33:05;15.7;90.0
45383;DHT22;42455;51.660;5.824;2023-03-23T19:38:11;15.7;89.5
45383;DHT22;42455;51.660;5.824;2023-03-23T19:43:17;15.7;89.5
45383;DHT22;42455;51.660;5.824;2023-03-23T19:48:23;15.7;89.5
45383;DHT22;42455;51.660;5.824;2023-03-23T19:53:29;15.7;89.5
45383;DHT22;42455;51.660;5.824;2023-03-23T19:58:36;15.6;89.5
45383;DHT22;42455;51.660;5.824;2023-03-23T20:03:42;15.6;89.5
45383;DHT22;42455;51.660;5.824;2023-03-23T20:08:48;15.6;89.5
45383;DHT22;42455;51.660;5.824;2023-03-23T20:13:55;15.6;89.5
45383;DHT22;42455;51.660;5.824;2023-03-23T20:19:01;15.7;89.5
45383;DHT22;42455;51.660;5.824;2023-03-23T20:24:07;15.7;89.5
45383;DHT22;42455;51.660;5.824;2023-03-23T20:29:12;15.7;89.5
45383;DHT22;42455;51.660;5.824;2023-03-23T20:34:18;15.7;90.0
45383;DHT22;42455;51.660;5.824;2023-03-23T20:39:25;15.7;90.0
45383;DHT22;42455;51.660;5.824;2023-03-23T20:44:30;15.6;90.0
45383;DHT22;42455;51.660;5.824;2023-03-23T20:49:37;15.6;90.0
45383;DHT22;42455;51.660;5.824;2023-03-23T20:54:42;15.6;90.0
45383;DHT22;42455;51.660;5.824;2023-03-23T20:59:48;15.5;90.5
45383;DHT22;42455;51.660;5.824;2023-03-23T21:04:54;15.5;90.5
45383;DHT22;42455;51.660;5.824;2023-03-23T21:10:01;15.5;90.5
45383;DHT22;42455;51.660;5.824;2023-03-23T21:15:07;15.4;90.5
45383;DHT22;42455;51.660;5.824;2023-03-23T21:20:48;15.4;90.5
45383;DHT22;42455;51.660;5.824;2023-03-23T21:25:19;15.3;91.0
45383;DHT22;42455;51.660;5.824;2023-03-23T21:30:26;15.3;91.0
45383;DHT22;42455;51.660;5.824;2023-03-23T21:35:31;15.2;91.0
45383;DHT22;42455;51.660;5.824;2023-03-23T21:40:38;15.2;91.5
45383;DHT22;42455;51.660;5.824;2023-03-23T21:45:44;15.2;91.5
45383;DHT22;42455;51.660;5.824;2023-03-23T21:50:51;15.2;91.5
45383;DHT22;42455;51.660;5.824;2023-03-23T21:55:56;15.2;91.5
45383;DHT22;42455;51.660;5.824;2023-03-23T22:01:03;15.2;91.5
45383;DHT22;42455;51.660;5.824;2023-03-23T22:06:12;15.2;91.5
45383;DHT22;42455;51.660;5.824;2023-03-23T22:11:18;15.1;91.5
45383;DHT22;42455;51.660;5.824;2023-03-23T22:16:22;15.1;91.5
45383;DHT22;42455;51.660;5.824;2023-03-23T22:21:28;15.1;91.5
45383;DHT22;42455;51.660;5.824;2023-03-23T22:26:33;15.1;91.5
45383;DHT22;42455;51.660;5.824;2023-03-23T22:31:39;15.0;91.5
45383;DHT22;42455;51.660;5.824;2023-03-23T22:36:44;15.0;91.5
45383;DHT22;42455;51.660;5.824;2023-03-23T22:41:51;14.9;92.0
45383;DHT22;42455;51.660;5.824;2023-03-23T22:46:57;14.9;92.0
45383;DHT22;42455;51.660;5.824;2023-03-23T22:52:03;14.8;92.0
45383;DHT22;42455;51.660;5.824;2023-03-23T22:57:10;14.8;92.0
45383;DHT22;42455;51.660;5.824;2023-03-23T23:02:15;14.7;92.5
45383;DHT22;42455;51.660;5.824;2023-03-23T23:07:22;14.6;92.5
45383;DHT22;42455;51.660;5.824;2023-03-23T23:12:28;14.6;92.5
45383;DHT22;42455;51.660;5.824;2023-03-23T23:17:34;14.5;93.0
45383;DHT22;42455;51.660;5.824;2023-03-23T23:22:40;14.5;93.0
45383;DHT22;42455;51.660;5.824;2023-03-23T23:27:46;14.4;93.0
45383;DHT22;42455;51.660;5.824;2023-03-23T23:32:53;14.4;93.5
45383;DHT22;42455;51.660;5.824;2023-03-23T23:37:59;14.4;93.5
45383;DHT22;42455;51.660;5.824;2023-03-23T23:43:06;14.4;94.0
45383;DHT22;42455;51.660;5.824;2023-03-23T23:48:11;14.4;94.0
45383;DHT22;42455;51.660;5.824;2023-03-23T23:53:17;14.4;94.0
45383;DHT22;42455;51.660;5.824;2023-03-23T23:58:24;14.4;94.0
